Time;durP1;ratioP1;P1;durP2;ratioP2;P2;SDS_P1;SDS_P2;PMS_P1;PMS_P2;Temp;Humidity;BMP_temperature;BMP_pressure;BME280_temperature;BME280_humidity;BME280_pressure;Samples;Min_cycle;Max_cycle;Signal;HPM_P1;HPM_P2
2024/01/07 00:03:50;;;;;;;5.68;3.85;;;15.00;99.90;;;;;;10514325;28;20067;-64
2024/01/07 00:08:52;;;;;;;4.55;3.28;;;15.00;99.90;;;;;;10505957;28;20056;-65
2024/01/07 00:13:56;;;;;;;5.50;3.93;;;15.00;99.90;;;;;;10511860;28;20055;-64
2024/01/07 00:19:03;;;;;;;4.68;3.83;;;15.00;99.90;;;;;;10518843;28;20492;-65
2024/01/07 00:24:06;;;;;;;4.53;4.07;;;14.90;99.90;;;;;;10514548;28;20546;-65
2024/01/07 00:29:13;;;;;;;7.63;4.82;;;15.00;99.90;;;;;;10516204;28;20116;-64
2024/01/07 00:34:15;;;;;;;4.45;3.45;;;14.90;99.90;;;;;;10515509;28;20051;-64
2024/01/07 00:39:17;;;;;;;6.27;4.67;;;14.70;99.90;;;;;;10527574;28;20094;-64
2024/01/07 00:44:20;;;;;;;5.87;3.67;;;14.60;99.90;;;;;;10515342;28;20052;-64
2024/01/07 00:49:24;;;;;;;6.50;4.13;;;14.70;99.90;;;;;;10518757;28;20268;-64
2024/01/07 00:54:26;;;;;;;6.57;4.03;;;14.80;99.90;;;;;;10513478;28;20051;-65
2024/01/07 00:59:31;;;;;;;6.47;4.57;;;14.80;99.90;;;;;;10514392;28;20059;-64
2024/01/07 01:04:33;;;;;;;6.72;4.90;;;14.80;99.90;;;;;;10517021;28;20094;-64
2024/01/07 01:09:36;;;;;;;6.03;4.35;;;14.80;99.90;;;;;;10520783;28;20047;-64
2024/01/07 01:14:40;;;;;;;7.72;5.10;;;14.60;99.90;;;;;;10514254;28;20074;-64
2024/01/07 01:19:42;;;;;;;7.22;4.68;;;14.70;99.90;;;;;;10514492;28;20048;-65
2024/01/07 01:24:45;;;;;;;6.53;4.67;;;14.60;99.90;;;;;;10520431;28;20060;-65
2024/01/07 01:29:49;;;;;;;6.90;4.90;;;14.60;99.90;;;;;;10518599;28;20050;-63
2024/01/07 01:34:51;;;;;;;6.28;4.82;;;14.40;99.90;;;;;;10517173;28;20048;-64
2024/01/07 01:39:53;;;;;;;7.30;4.97;;;14.50;99.90;;;;;;10517673;28;20153;-69
2024/01/07 01:44:59;;;;;;;5.33;4.47;;;14.30;99.90;;;;;;10519574;28;20052;-65
2024/01/07 01:50:01;;;;;;;4.63;3.92;;;14.40;99.90;;;;;;10513870;28;20807;-65
2024/01/07 01:55:04;;;;;;;5.35;3.85;;;14.40;99.90;;;;;;10517890;28;20059;-64
2024/01/07 02:00:08;;;;;;;5.95;4.93;;;14.40;99.90;;;;;;10525488;28;20112;-64
2024/01/07 02:05:13;;;;;;;6.40;5.18;;;14.40;99.90;;;;;;10525927;28;20075;-65
2024/01/07 02:10:15;;;;;;;7.47;5.78;;;14.50;99.90;;;;;;10518812;28;20047;-65
2024/01/07 02:15:20;;;;;;;6.50;3.87;;;14.40;99.90;;;;;;10516575;28;20063;-65
2024/01/07 02:20:22;;;;;;;5.45;4.28;;;14.40;99.90;;;;;;10526007;28;21064;-65
2024/01/07 02:25:25;;;;;;;5.90;4.40;;;14.40;99.90;;;;;;10519201;28;20051;-64
2024/01/07 02:30:27;;;;;;;5.63;4.78;;;14.40;99.90;;;;;;10509503;28;20075;-65
2024/01/07 02:35:29;;;;;;;5.95;3.65;;;14.40;99.90;;;;;;10517442;28;20398;-65
2024/01/07 02:40:35;;;;;;;7.23;5.20;;;14.30;99.90;;;;;;10521637;28;20085;-65
2024/01/07 02:45:37;;;;;;;6.18;5.07;;;14.50;99.90;;;;;;10521637;28;20886;-65
2024/01/07 02:50:41;;;;;;;6.83;4.80;;;14.40;99.90;;;;;;10520547;28;20060;-67
2024/01/07 02:55:45;;;;;;;4.40;3.97;;;14.40;99.90;;;;;;10524027;28;20051;-65
2024/01/07 03:00:47;;;;;;;9.27;5.50;;;14.50;99.90;;;;;;10525420;28;20049;-64
2024/01/07 03:05:49;;;;;;;7.40;5.07;;;14.40;99.90;;;;;;10520747;28;20055;-65
2024/01/07 03:10:53;;;;;;;7.93;5.90;;;14.20;99.90;;;;;;10523311;28;20644;-63
2024/01/07 03:15:54;;;;;;;6.38;4.60;;;14.20;99.90;;;;;;10521190;27;20116;-64
2024/01/07 03:20:56;;;;;;;4.67;3.47;;;14.20;99.90;;;;;;10522407;28;20140;-65
2024/01/07 03:26:01;;;;;;;8.87;4.67;;;14.30;99.90;;;;;;10523091;28;20134;-65
2024/01/07 03:31:06;;;;;;;5.78;4.63;;;14.30;99.90;;;;;;10527331;28;20073;-64
2024/01/07 03:36:09;;;;;;;4.55;3.00;;;14.20;99.90;;;;;;10520528;28;20055;-65
2024/01/07 03:41:20;;;;;;;6.57;4.95;;;14.20;99.90;;;;;;10521942;28;20055;-64
2024/01/07 03:46:22;;;;;;;7.88;4.88;;;14.20;99.90;;;;;;10515806;28;20056;-65
2024/01/07 03:51:24;;;;;;;7.13;5.37;;;14.20;99.90;;;;;;10520244;28;20120;-64
2024/01/07 03:56:27;;;;;;;7.63;5.60;;;14.10;99.90;;;;;;10519153;28;20827;-64
2024/01/07 04:15:34;;;;;;;6.55;5.07;;;14.10;99.90;;;;;;10574690;27;20132;-64
2024/01/07 04:20:36;;;;;;;7.50;4.60;;;14.20;99.90;;;;;;10589672;27;20058;-65
2024/01/07 04:25:39;;;;;;;4.90;3.47;;;14.20;99.90;;;;;;10595181;27;20101;-65
2024/01/07 04:30:43;;;;;;;5.40;3.88;;;14.20;99.90;;;;;;10594994;27;20201;-65
2024/01/07 04:35:45;;;;;;;7.05;5.25;;;14.10;99.90;;;;;;10596880;27;20062;-64
2024/01/07 04:40:47;;;;;;;4.93;2.70;;;14.10;99.90;;;;;;10599176;27;20054;-63
2024/01/07 04:45:51;;;;;;;7.63;5.15;;;14.20;99.90;;;;;;10585395;27;20055;-64
2024/01/07 04:50:53;;;;;;;4.22;2.92;;;14.10;99.90;;;;;;10598725;27;20047;-65
2024/01/07 04:55:57;;;;;;;7.20;5.67;;;14.10;99.90;;;;;;10590879;27;20083;-64
2024/01/07 05:01:01;;;;;;;6.85;4.50;;;14.20;99.90;;;;;;10593622;27;20426;-65
2024/01/07 05:06:04;;;;;;;5.03;3.95;;;14.10;99.90;;;;;;10595965;27;20046;-64
2024/01/07 05:11:06;;;;;;;7.82;4.88;;;14.20;99.90;;;;;;10591363;27;20089;-64
2024/01/07 05:16:09;;;;;;;5.47;4.47;;;14.30;99.90;;;;;;10588994;27;20055;-64
2024/01/07 05:21:11;;;;;;;5.93;3.95;;;14.40;99.90;;;;;;10588663;27;20035;-63
2024/01/07 05:26:14;;;;;;;5.50;4.30;;;14.50;99.90;;;;;;10573591;27;20047;-64
2024/01/07 05:31:18;;;;;;;6.57;4.88;;;14.60;99.90;;;;;;10565791;27;20047;-64
2024/01/07 05:36:21;;;;;;;7.78;5.57;;;14.80;99.90;;;;;;10559404;27;20157;-64
2024/01/07 05:41:23;;;;;;;4.53;4.03;;;14.80;99.90;;;;;;10566264;27;20051;-65
2024/01/07 05:46:27;;;;;;;5.37;3.97;;;14.90;99.90;;;;;;10564953;27;20051;-64
2024/01/07 05:51:29;;;;;;;5.43;3.58;;;15.20;99.90;;;;;;10566048;27;20043;-65
2024/01/07 05:56:31;;;;;;;7.97;4.57;;;15.30;99.90;;;;;;10562273;27;20124;-65
2024/01/07 06:01:35;;;;;;;7.33;4.83;;;15.30;99.90;;;;;;10561181;27;20066;-65
2024/01/07 06:06:37;;;;;;;6.03;4.95;;;15.30;99.90;;;;;;10559247;27;20107;-65
2024/01/07 06:11:41;;;;;;;5.07;3.67;;;15.20;99.90;;;;;;10555235;27;20051;-64
2024/01/07 06:16:44;;;;;;;6.28;4.53;;;15.30;99.90;;;;;;10555388;27;20127;-64
2024/01/07 06:21:46;;;;;;;3.80;3.03;;;15.40;99.90;;;;;;10560187;27;20084;-65
2024/01/07 06:26:48;;;;;;;6.60;4.10;;;15.50;99.90;;;;;;10562088;27;20102;-64
2024/01/07 06:31:52;;;;;;;5.20;4.67;;;15.30;99.90;;;;;;10566252;27;20078;-65
2024/01/07 06:36:54;;;;;;;10.20;5.75;;;15.30;99.90;;;;;;10558251;27;20043;-64
2024/01/07 06:41:56;;;;;;;7.83;6.20;;;15.30;99.90;;;;;;10557085;27;20067;-64
2024/01/07 06:46:59;;;;;;;5.83;4.27;;;15.20;99.90;;;;;;10554593;27;20219;-66
2024/01/07 06:52:01;;;;;;;10.25;6.78;;;15.20;99.90;;;;;;10559201;27;20047;-65
2024/01/07 06:57:04;;;;;;;6.27;4.33;;;15.10;99.90;;;;;;10559266;27;20095;-65
2024/01/07 07:02:07;;;;;;;4.63;4.03;;;15.20;99.90;;;;;;10564084;27;20040;-67
2024/01/07 07:07:09;;;;;;;8.60;6.47;;;15.20;99.90;;;;;;10557251;27;20767;-65
2024/01/07 07:12:13;;;;;;;5.10;2.53;;;15.20;99.90;;;;;;10555622;27;20930;-65
2024/01/07 07:17:16;;;;;;;7.35;5.43;;;15.10;99.90;;;;;;10558380;27;20674;-65
2024/01/07 07:22:18;;;;;;;9.93;7.28;;;15.10;99.90;;;;;;10553743;27;20596;-65
2024/01/07 07:27:20;;;;;;;11.70;7.17;;;15.00;99.90;;;;;;10559846;27;20062;-65
2024/01/07 07:32:24;;;;;;;7.33;4.80;;;14.90;99.90;;;;;;10560060;27;20172;-65
2024/01/07 07:37:26;;;;;;;10.57;6.20;;;15.00;99.90;;;;;;10558134;27;20492;-65
2024/01/07 07:42:28;;;;;;;11.03;5.67;;;15.00;99.90;;;;;;10554686;27;20056;-67
2024/01/07 07:47:32;;;;;;;9.77;6.90;;;15.10;99.90;;;;;;10541712;27;21097;-65
2024/01/07 07:52:34;;;;;;;9.85;6.85;;;15.10;99.90;;;;;;10553913;27;20162;-66
2024/01/07 07:57:36;;;;;;;6.73;5.23;;;15.00;99.90;;;;;;10559319;27;20047;-64
2024/01/07 08:02:40;;;;;;;7.50;5.28;;;15.10;99.90;;;;;;10544393;27;20070;-65
2024/01/07 08:07:42;;;;;;;7.03;5.13;;;15.20;99.90;;;;;;10552171;27;20070;-66
2024/01/07 08:12:44;;;;;;;6.63;4.33;;;15.00;99.90;;;;;;10552368;27;20056;-66
2024/01/07 08:17:47;;;;;;;6.03;4.30;;;15.10;99.90;;;;;;10543199;27;20453;-67
2024/01/07 08:22:50;;;;;;;7.18;4.93;;;15.10;99.90;;;;;;10550233;28;20820;-66
2024/01/07 08:27:52;;;;;;;6.30;4.72;;;15.10;99.90;;;;;;10549155;27;20531;-65
2024/01/07 08:32:58;;;;;;;4.20;2.60;;;15.20;99.90;;;;;;10542770;28;20145;-65
2024/01/07 08:38:00;;;;;;;6.65;4.20;;;15.20;99.90;;;;;;10554599;28;20048;-66
2024/01/07 08:43:03;;;;;;;7.30;4.57;;;15.30;99.90;;;;;;10552335;27;20173;-66
2024/01/07 08:48:08;;;;;;;5.55;3.85;;;15.20;99.90;;;;;;10548903;27;20399;-65
2024/01/07 08:53:10;;;;;;;7.18;4.38;;;15.10;99.90;;;;;;10544406;28;20078;-66
2024/01/07 08:58:12;;;;;;;4.97;3.33;;;15.30;99.90;;;;;;10550655;27;20058;-64
2024/01/07 09:03:15;;;;;;;6.07;4.40;;;15.30;99.90;;;;;;10552200;27;20056;-67
2024/01/07 09:08:17;;;;;;;8.02;4.80;;;15.40;99.90;;;;;;10551774;27;20090;-64
2024/01/07 09:13:19;;;;;;;6.28;4.75;;;15.10;99.90;;;;;;10559509;27;20055;-64
2024/01/07 09:18:23;;;;;;;5.77;3.07;;;15.20;99.90;;;;;;10557431;27;20047;-64
2024/01/07 09:23:24;;;;;;;4.50;3.20;;;15.20;99.90;;;;;;10555545;27;20050;-65
2024/01/07 09:28:27;;;;;;;10.33;4.60;;;15.20;99.90;;;;;;10547583;27;20103;-65
2024/01/07 09:33:30;;;;;;;6.28;4.57;;;15.40;99.90;;;;;;10557728;27;20184;-64
2024/01/07 09:38:32;;;;;;;6.72;3.63;;;15.30;99.90;;;;;;10554832;27;20078;-65
2024/01/07 09:43:34;;;;;;;5.27;4.30;;;15.40;99.90;;;;;;10553575;27;20071;-65
2024/01/07 09:48:38;;;;;;;6.37;4.37;;;15.30;99.90;;;;;;10554444;27;20078;-65
2024/01/07 09:53:41;;;;;;;5.95;2.88;;;15.30;99.90;;;;;;10552508;27;20598;-65
2024/01/07 09:58:43;;;;;;;6.53;4.00;;;15.20;99.90;;;;;;10560012;27;20043;-65
2024/01/07 10:03:47;;;;;;;6.03;4.32;;;15.20;99.90;;;;;;10563377;27;20089;-64
2024/01/07 10:08:49;;;;;;;6.78;3.47;;;15.10;99.90;;;;;;10550474;27;20055;-65
2024/01/07 10:13:52;;;;;;;5.53;2.97;;;15.20;99.90;;;;;;10548804;27;20043;-65
2024/01/07 10:18:56;;;;;;;6.00;3.00;;;15.30;99.90;;;;;;10555968;27;20071;-65
2024/01/07 10:24:09;;;;;;;7.50;2.53;;;15.30;99.90;;;;;;10556920;27;20051;-65
2024/01/07 10:29:11;;;;;;;3.93;2.63;;;15.30;99.90;;;;;;10565635;27;20063;-65
2024/01/07 10:34:15;;;;;;;6.07;3.40;;;15.30;99.90;;;;;;10558014;27;20161;-66
2024/01/07 10:39:17;;;;;;;9.63;4.05;;;15.30;99.90;;;;;;10565529;27;20830;-65
2024/01/07 10:44:20;;;;;;;7.87;3.93;;;15.30;99.90;;;;;;10562750;27;20051;-63
2024/01/07 10:49:24;;;;;;;3.65;2.97;;;15.40;99.90;;;;;;10562997;27;20782;-65
2024/01/07 10:54:33;;;;;;;4.30;2.67;;;15.30;99.90;;;;;;10560626;27;20111;-64
2024/01/07 10:59:37;;;;;;;4.60;2.97;;;15.30;99.90;;;;;;10556471;27;20079;-65
2024/01/07 11:04:49;;;;;;;5.40;3.60;;;15.10;99.90;;;;;;10559572;27;20046;-63
2024/01/07 11:10:03;;;;;;;3.77;2.43;;;15.30;99.90;;;;;;10564167;27;20052;-67
2024/01/07 11:15:06;;;;;;;6.47;3.33;;;15.40;99.90;;;;;;10548463;27;20197;-66
2024/01/07 11:20:19;;;;;;;6.53;2.97;;;15.30;99.90;;;;;;10554169;27;20051;-65
2024/01/07 11:25:47;;;;;;;7.72;3.10;;;15.40;99.90;;;;;;10545734;27;20531;-65
2024/01/07 11:30:56;;;;;;;7.43;2.70;;;15.40;99.90;;;;;;10547321;27;20486;-65
2024/01/07 11:36:04;;;;;;;5.13;2.75;;;15.30;99.90;;;;;;10540634;27;20413;-65
2024/01/07 11:41:08;;;;;;;3.78;2.97;;;15.30;99.90;;;;;;10542704;27;22589;-68
2024/01/07 11:46:11;;;;;;;10.25;3.15;;;15.30;99.90;;;;;;10541852;27;20043;-66
2024/01/07 11:51:15;;;;;;;3.40;3.00;;;15.40;99.90;;;;;;10543936;27;20066;-66
2024/01/07 11:56:18;;;;;;;5.82;3.10;;;15.40;99.90;;;;;;10548787;27;20065;-65
2024/01/07 12:01:20;;;;;;;3.88;2.50;;;15.30;99.90;;;;;;10542353;27;21128;-64
2024/01/07 12:06:24;;;;;;;3.40;2.58;;;15.30;99.90;;;;;;10532582;28;20062;-65
2024/01/07 12:11:26;;;;;;;3.30;2.72;;;15.40;99.90;;;;;;10537458;28;20059;-65
2024/01/07 12:16:28;;;;;;;3.50;1.90;;;15.40;99.90;;;;;;10541304;28;20852;-65
2024/01/07 12:21:32;;;;;;;2.88;2.13;;;15.40;99.90;;;;;;10543005;28;20059;-64
2024/01/07 12:26:34;;;;;;;4.93;2.13;;;15.60;99.90;;;;;;10538261;28;20533;-65
2024/01/07 12:31:38;;;;;;;1.80;1.60;;;15.50;99.90;;;;;;10549148;27;20063;-64
2024/01/07 12:36:46;;;;;;;7.40;1.63;;;15.50;99.90;;;;;;10550410;27;20790;-66
2024/01/07 12:41:48;;;;;;;5.18;2.78;;;15.30;99.90;;;;;;10552983;27;20052;-68
2024/01/07 12:46:51;;;;;;;3.00;2.22;;;15.20;99.90;;;;;;10551864;27;20059;-65
2024/01/07 12:51:55;;;;;;;4.68;2.45;;;15.20;99.90;;;;;;10552337;27;20039;-65
2024/01/07 12:57:00;;;;;;;6.07;2.35;;;15.20;99.90;;;;;;10550216;27;20058;-65
2024/01/07 13:02:02;;;;;;;4.13;2.22;;;15.30;99.90;;;;;;10552206;27;20062;-65
2024/01/07 13:07:06;;;;;;;3.67;2.30;;;15.30;99.90;;;;;;10551465;27;20035;-66
2024/01/07 13:12:08;;;;;;;3.80;2.05;;;15.60;99.90;;;;;;10556229;27;20510;-65
2024/01/07 13:17:10;;;;;;;3.08;2.00;;;15.60;99.90;;;;;;10553282;27;20138;-64
2024/01/07 13:22:14;;;;;;;3.63;1.67;;;15.70;99.90;;;;;;10555001;27;20096;-65
2024/01/07 13:27:17;;;;;;;5.90;2.03;;;15.50;99.90;;;;;;10559191;27;20074;-66
2024/01/07 13:32:20;;;;;;;3.53;1.50;;;15.50;99.90;;;;;;10552049;27;20764;-66
2024/01/07 13:37:23;;;;;;;2.75;1.90;;;15.90;99.90;;;;;;10553566;27;20047;-66
2024/01/07 13:42:26;;;;;;;2.83;2.33;;;15.90;99.90;;;;;;10557542;27;20052;-65
2024/01/07 13:47:28;;;;;;;2.45;1.73;;;15.90;99.90;;;;;;10552358;27;20569;-65
2024/01/07 13:52:31;;;;;;;2.70;1.67;;;15.90;99.90;;;;;;10548724;27;20546;-65
2024/01/07 13:57:33;;;;;;;1.83;1.48;;;16.00;99.90;;;;;;10548547;27;20465;-67
2024/01/07 14:02:37;;;;;;;2.20;1.23;;;16.10;99.90;;;;;;10554228;27;20426;-64
2024/01/07 14:07:41;;;;;;;3.13;1.67;;;16.20;99.90;;;;;;10557315;27;20136;-64
2024/01/07 14:12:43;;;;;;;1.88;1.48;;;16.10;99.90;;;;;;10549387;27;20117;-64
2024/01/07 14:17:45;;;;;;;2.87;1.40;;;16.40;99.90;;;;;;10560091;27;20732;-63
2024/01/07 14:22:48;;;;;;;3.80;1.47;;;16.40;99.90;;;;;;10555588;27;20086;-66
2024/01/07 14:27:50;;;;;;;5.40;1.20;;;16.40;99.90;;;;;;10557236;27;20048;-63
2024/01/07 14:32:52;;;;;;;2.67;1.40;;;16.50;99.90;;;;;;10561632;27;20417;-65
2024/01/07 14:37:59;;;;;;;2.43;1.23;;;16.60;99.90;;;;;;10557633;27;22514;-66
2024/01/07 14:43:01;;;;;;;3.80;1.30;;;16.70;99.90;;;;;;10550828;27;20489;-65
2024/01/07 14:48:04;;;;;;;1.58;1.10;;;16.80;99.90;;;;;;10552822;27;20128;-64
2024/01/07 14:53:08;;;;;;;3.20;1.52;;;16.90;99.90;;;;;;10554426;27;20056;-65
2024/01/07 14:58:10;;;;;;;4.35;1.00;;;17.00;99.90;;;;;;10555597;27;21278;-65
2024/01/07 15:03:12;;;;;;;7.15;1.77;;;17.20;99.90;;;;;;10556982;27;20047;-66
2024/01/07 15:08:15;;;;;;;2.60;1.70;;;17.20;99.90;;;;;;10550286;27;20052;-72
2024/01/07 15:13:17;;;;;;;3.65;1.52;;;17.20;99.90;;;;;;10554386;27;20411;-65
2024/01/07 15:18:19;;;;;;;6.60;1.48;;;17.20;99.90;;;;;;10551858;27;20558;-67
2024/01/07 15:23:23;;;;;;;3.07;1.60;;;17.30;99.90;;;;;;10552246;27;20078;-68
2024/01/07 15:28:25;;;;;;;3.03;1.48;;;17.20;99.90;;;;;;10555986;27;20047;-66
2024/01/07 15:33:27;;;;;;;3.30;1.17;;;17.30;99.90;;;;;;10554090;27;20569;-66
2024/01/07 15:38:31;;;;;;;2.97;1.25;;;17.20;99.90;;;;;;10543385;27;20051;-67
2024/01/07 15:43:33;;;;;;;2.10;1.40;;;17.30;99.90;;;;;;10542326;27;20043;-67
2024/01/07 15:48:35;;;;;;;3.30;2.25;;;17.30;99.90;;;;;;10539173;27;20777;-68
2024/01/07 15:53:41;;;;;;;1.27;0.90;;;17.30;99.90;;;;;;10549746;27;20070;-67
2024/01/07 15:58:43;;;;;;;4.45;1.48;;;17.30;99.90;;;;;;10548835;27;20473;-68
2024/01/07 16:03:45;;;;;;;4.90;2.25;;;17.10;99.90;;;;;;10542698;27;20051;-65
2024/01/07 16:08:49;;;;;;;6.72;1.50;;;17.10;99.90;;;;;;10542772;27;20055;-67
2024/01/07 16:13:51;;;;;;;8.60;2.92;;;16.90;99.90;;;;;;10542162;28;20078;-65
2024/01/07 16:18:53;;;;;;;6.93;2.75;;;16.90;99.90;;;;;;10549520;28;20051;-67
2024/01/07 16:23:57;;;;;;;;;;;17.20;99.90;;;;;;10554887;28;20055;-69
2024/01/07 16:28:59;;;;;;;14.45;3.47;;;17.10;99.90;;;;;;10551824;28;20337;-68
2024/01/07 16:34:01;;;;;;;11.38;2.58;;;17.00;99.90;;;;;;10540947;27;20125;-69
2024/01/07 16:39:05;;;;;;;5.80;2.03;;;16.80;99.90;;;;;;10540260;28;20085;-72
2024/01/07 16:44:08;;;;;;;8.13;2.85;;;16.70;99.90;;;;;;10538423;28;20052;-73
2024/01/07 16:49:10;;;;;;;5.28;2.58;;;16.50;99.90;;;;;;10545351;28;20058;-71
2024/01/07 16:54:14;;;;;;;7.07;2.38;;;16.10;99.90;;;;;;10549831;28;20851;-72
2024/01/07 16:59:16;;;;;;;6.97;2.45;;;15.60;99.90;;;;;;10559077;27;20287;-71
2024/01/07 17:04:20;;;;;;;4.65;2.92;;;15.70;99.90;;;;;;10553021;27;20055;-71
2024/01/07 17:09:24;;;;;;;6.05;3.03;;;15.30;99.90;;;;;;10541162;27;20051;-74
2024/01/07 17:14:27;;;;;;;5.03;2.35;;;15.20;99.90;;;;;;10543204;28;20048;-72
2024/01/07 17:19:32;;;;;;;6.10;2.50;;;15.50;99.90;;;;;;10542481;27;20747;-71
2024/01/07 17:24:36;;;;;;;5.13;2.35;;;15.10;99.90;;;;;;10551083;27;20525;-72
2024/01/07 17:29:38;;;;;;;4.43;2.42;;;14.90;99.90;;;;;;10532432;27;20059;-72
2024/01/07 17:34:40;;;;;;;10.40;2.87;;;15.10;99.90;;;;;;10547667;27;20216;-72
2024/01/07 17:39:44;;;;;;;4.40;2.57;;;15.00;99.90;;;;;;10557869;27;20047;-70
2024/01/07 17:44:47;;;;;;;4.05;2.30;;;15.00;99.90;;;;;;10554299;27;20043;-70
2024/01/07 17:49:50;;;;;;;5.30;2.70;;;15.20;99.90;;;;;;10557803;27;20047;-71
2024/01/07 17:54:56;;;;;;;3.38;2.20;;;15.40;99.90;;;;;;10564235;27;20050;-71
2024/01/07 18:00:01;;;;;;;3.15;2.60;;;15.40;99.90;;;;;;10545482;27;20055;-71
2024/01/07 18:05:03;;;;;;;4.43;2.30;;;15.40;99.90;;;;;;10553424;27;21480;-71
2024/01/07 18:10:10;;;;;;;5.07;2.60;;;15.00;99.90;;;;;;10551338;27;20055;-73
2024/01/07 18:15:12;;;;;;;4.65;2.65;;;14.80;99.90;;;;;;10548501;27;20047;-70
2024/01/07 18:20:15;;;;;;;3.73;2.70;;;14.70;99.90;;;;;;10535176;27;20890;-71
2024/01/07 18:25:18;;;;;;;6.07;2.80;;;14.60;99.90;;;;;;10543031;27;20040;-71
2024/01/07 18:30:20;;;;;;;6.50;3.05;;;14.50;99.90;;;;;;10539330;27;20884;-71
2024/01/07 18:35:24;;;;;;;4.97;3.60;;;14.50;99.90;;;;;;10546095;27;20209;-72
2024/01/07 18:40:28;;;;;;;4.32;2.10;;;14.40;99.90;;;;;;10547247;27;20085;-71
2024/01/07 18:45:30;;;;;;;5.40;3.63;;;14.30;99.90;;;;;;10547653;27;20035;-72
2024/01/07 18:50:32;;;;;;;7.78;3.03;;;14.20;99.90;;;;;;10538878;27;20060;-71
2024/01/07 18:55:39;;;;;;;7.37;3.43;;;14.20;99.90;;;;;;10550709;27;20039;-72
2024/01/07 19:00:41;;;;;;;6.90;2.78;;;14.20;99.90;;;;;;10543830;27;20505;-70
2024/01/07 19:05:45;;;;;;;8.57;4.10;;;14.20;99.90;;;;;;10539086;27;20899;-71
2024/01/07 19:10:52;;;;;;;4.78;3.05;;;14.60;99.90;;;;;;10537092;27;21132;-72
2024/01/07 19:15:54;;;;;;;4.50;3.03;;;14.80;99.90;;;;;;10550563;27;20074;-72
2024/01/07 19:20:59;;;;;;;4.40;1.90;;;14.80;99.90;;;;;;10546342;27;20062;-71
2024/01/07 19:26:10;;;;;;;4.57;3.10;;;14.70;99.90;;;;;;10561336;27;20050;-71
2024/01/07 19:31:16;;;;;;;3.67;1.92;;;14.70;99.90;;;;;;10557246;27;20134;-69
2024/01/07 19:36:21;;;;;;;8.25;3.40;;;14.70;99.90;;;;;;10566460;27;20812;-71
2024/01/07 19:41:32;;;;;;;11.02;4.78;;;14.70;99.90;;;;;;10556255;27;20043;-71
2024/01/07 19:46:35;;;;;;;6.40;2.60;;;14.60;99.90;;;;;;10549386;27;20537;-72
2024/01/07 19:51:37;;;;;;;5.03;2.20;;;14.60;99.90;;;;;;10548926;27;20051;-71
2024/01/07 19:56:42;;;;;;;4.93;2.63;;;14.50;99.90;;;;;;10550914;27;20861;-72
2024/01/07 20:01:44;;;;;;;8.93;4.65;;;14.40;99.90;;;;;;10540282;27;20617;-71
2024/01/07 20:06:46;;;;;;;8.50;2.97;;;14.40;99.90;;;;;;10550069;27;20256;-67
2024/01/07 20:11:50;;;;;;;16.70;7.57;;;14.30;99.90;;;;;;10551274;27;20480;-69
2024/01/07 20:16:52;;;;;;;10.60;6.05;;;14.50;99.90;;;;;;10546951;28;23028;-66
2024/01/07 20:21:54;;;;;;;;;;;14.30;99.90;;;;;;10541863;28;20054;-70
2024/01/07 20:26:59;;;;;;;10.43;3.83;;;14.20;99.90;;;;;;10544500;28;20662;-68
2024/01/07 20:32:01;;;;;;;7.47;2.85;;;14.10;99.90;;;;;;10541936;28;20047;-68
2024/01/07 20:37:04;;;;;;;13.57;4.93;;;14.00;99.90;;;;;;10548597;28;20043;-65
2024/01/07 20:42:07;;;;;;;9.13;3.67;;;13.90;99.90;;;;;;10549407;28;20785;-70
2024/01/07 20:47:09;;;;;;;8.40;3.90;;;13.90;99.90;;;;;;10547121;27;20043;-66
2024/01/07 20:52:11;;;;;;;12.00;5.03;;;13.80;99.90;;;;;;10549378;27;20046;-68
2024/01/07 20:57:15;;;;;;;8.87;3.17;;;13.70;99.90;;;;;;10552621;27;20043;-67
2024/01/07 21:02:17;;;;;;;7.53;4.00;;;13.80;99.90;;;;;;10555380;27;20082;-67
2024/01/07 21:07:20;;;;;;;5.93;2.95;;;13.70;99.90;;;;;;10558213;27;20832;-67
2024/01/07 21:12:23;;;;;;;10.10;4.65;;;13.70;99.90;;;;;;10553345;27;20114;-66
2024/01/07 21:17:25;;;;;;;8.20;3.40;;;13.60;99.90;;;;;;10555998;27;20143;-67
2024/01/07 21:22:27;;;;;;;6.40;3.33;;;14.10;99.90;;;;;;10552169;27;20468;-65
2024/01/07 21:27:30;;;;;;;8.77;3.70;;;13.70;99.90;;;;;;10548189;27;20044;-65
2024/01/07 21:32:32;;;;;;;8.52;3.58;;;13.50;99.90;;;;;;10555947;27;20128;-68
2024/01/07 21:37:35;;;;;;;10.67;2.93;;;13.60;99.90;;;;;;10553988;27;20082;-64
2024/01/07 21:42:39;;;;;;;5.53;2.88;;;13.50;99.90;;;;;;10554832;27;20059;-67
2024/01/07 21:47:41;;;;;;;5.95;2.50;;;13.40;99.90;;;;;;10545542;27;20850;-65
2024/01/07 21:52:53;;;;;;;6.83;3.60;;;13.50;99.90;;;;;;10560794;27;20068;-68
2024/01/07 21:57:57;;;;;;;7.82;2.42;;;13.50;99.90;;;;;;10554475;27;20050;-66
2024/01/07 22:03:00;;;;;;;11.20;3.20;;;13.40;99.90;;;;;;10558295;27;20870;-66
2024/01/07 22:08:05;;;;;;;6.00;2.55;;;13.40;99.90;;;;;;10565331;27;20043;-64
2024/01/07 22:13:09;;;;;;;7.32;3.95;;;13.30;99.90;;;;;;10562195;27;20135;-65
2024/01/07 22:18:11;;;;;;;6.15;4.07;;;13.30;99.90;;;;;;10570208;27;20753;-66
2024/01/07 22:23:14;;;;;;;10.32;2.70;;;13.30;99.90;;;;;;10564151;27;20071;-66
2024/01/07 22:28:17;;;;;;;7.05;2.60;;;13.20;99.90;;;;;;10563537;27;20044;-66
2024/01/07 22:33:19;;;;;;;8.20;3.08;;;13.20;99.90;;;;;;10559857;27;20055;-67
2024/01/07 22:38:24;;;;;;;4.77;2.77;;;13.20;99.90;;;;;;10569488;27;20116;-65
2024/01/07 22:43:28;;;;;;;5.60;2.88;;;13.20;99.90;;;;;;10547476;27;20055;-67
2024/01/07 22:48:31;;;;;;;4.55;2.58;;;13.20;99.90;;;;;;10538130;27;20047;-66
2024/01/07 22:53:34;;;;;;;4.72;2.00;;;13.10;99.90;;;;;;10559798;27;20131;-66
2024/01/07 22:58:38;;;;;;;5.57;2.40;;;13.20;99.90;;;;;;10557533;27;20173;-65
2024/01/07 23:03:40;;;;;;;7.22;2.10;;;13.20;99.90;;;;;;10553312;27;20062;-66
2024/01/07 23:08:42;;;;;;;4.23;2.23;;;13.10;99.90;;;;;;10555260;27;20077;-66
2024/01/07 23:13:47;;;;;;;5.00;2.70;;;13.10;99.90;;;;;;10550582;27;20208;-66
2024/01/07 23:18:50;;;;;;;7.65;2.67;;;13.10;99.90;;;;;;10558258;27;20121;-66
2024/01/07 23:23:52;;;;;;;3.77;2.37;;;13.20;99.90;;;;;;10554811;27;20055;-65
2024/01/07 23:28:55;;;;;;;5.73;2.23;;;13.00;99.90;;;;;;10550717;27;20062;-65
2024/01/07 23:33:57;;;;;;;6.53;2.13;;;13.00;99.90;;;;;;10552914;27;20070;-66
2024/01/07 23:38:59;;;;;;;4.75;2.38;;;13.00;99.90;;;;;;10555279;27;20082;-66
2024/01/07 23:44:02;;;;;;;5.43;1.83;;;13.10;99.90;;;;;;10562767;27;20070;-65
2024/01/07 23:49:05;;;;;;;5.30;2.17;;;13.10;99.90;;;;;;10557853;27;20088;-66
2024/01/07 23:54:07;;;;;;;8.27;2.38;;;13.00;99.90;;;;;;10563526;27;20055;-67
2024/01/07 23:59:12;;;;;;;4.47;2.37;;;13.00;99.90;;;;;;10559852;27;20082;-67
